Relevés horaires Gösgen (Suisse)


Relevés horaires à Gösgen - Vendredi 13 Juill. 2018
Heure UTC1 Température [°C] Vent [km/h] Hum. [%] Pres.4 [hPa] Visi. [Km] Nébu. [octa] Préc.5 [mm] Cond.
2m. Res. Ros. Dir.2 Vit. Moy. Raf.3
23:00 20.0 20.0 14.6 E 1.9 -- -- 71 1018.1 -- -- -- --
22:00 20.0 20.0 14.0 NO 1.9 -- -- 68 1018 -- -- -- --
21:00 20.5 20.5 13.8 N 0.0 -- 11.1 65 1017.9(1.0/3h) -- -- -- --
20:00 20.3 20.3 14.5 OSO 3.7 -- -- 69 1017.6 -- -- -- --
19:00 23.9 23.9 13.0 SSE 1.9 -- -- 50 1016.4 -- -- -- --
18:00 26.0 26.0 11.8 N 7.4 -- 25.9 41 1016(-0.3/3h) -- -- 0/12h
--
17:00 27.2 27.2 12.3 NNE 9.3 -- -- 40 1015.8 -- -- -- --
16:00 27.7 27.7 10.9 NNO 7.4 -- -- 35 1015.7 -- -- -- --
15:00 27.9 27.9 10.1 OSO 9.3 -- 25.9 33 1016(-1.0/3h) -- -- -- --
14:00 28.1 28.1 12.0 OSO 7.4 -- -- 37 1016.4 -- -- -- --
13:00 27.5 27.5 10.6 SO 7.4 -- -- 35 1016.8 -- -- -- --
12:00 26.6 26.6 10.6 S 7.4 -- 16.7 37 1017.3(-0.8/3h) -- -- 0/6h
--
11:00 25.6 25.6 11.5 N 7.4 -- -- 41 1018 -- -- -- --
10:00 24.5 24.5 12.3 NO 5.6 -- -- 47 1018.4 -- -- -- --
09:00 22.4 22.4 13.1 ESE 3.7 -- 14.8 56 1018.8(-0.1/3h) -- -- -- --
08:00 20.5 20.5 12.7 ESE 1.9 -- -- 61 1019.4 -- -- -- --
07:00 18.4 18.4 13.1 S 1.9 -- -- 71 1019.6 -- -- -- --
06:00 15.9 15.9 12.6 S 0.0 -- 3.7 81 1019.9(0.5/3h) -- -- 0/12h
0/24h
--
05:00 13.6 13.6 11.8 NNO 0.0 -- -- 89 1020.3 -- -- -- --
04:00 12.6 12.6 11.4 S 0.0 -- -- 92 1020.4 -- -- -- --
03:00 12.8 12.8 11.7 SSO 1.9 -- 3.7 93 1019.9(0.3/3h) -- -- -- --
02:00 13.4 13.4 11.5 NNO 0.0 -- -- 88 1019.6 -- -- -- --
01:00 13.7 13.7 11.7 NNO 0.0 -- -- 88 1019.7 -- -- -- --
00:00 14.9 14.9 12.1 NNO 0.0 -- 22.2 83 1019.3(0.4/3h) -- -- 0/6h
--

1 Coordinated Universal Time. Actuellement il est 18:00 locale et 16:00 UTC.

2 Le vent souffle depuis la direction indiquée vers la direction oposée.

3 Les rafales max. sont disponible 40 min après l'heure du relevé.

4 Pour les stations d'altitude (plus de 600m) le géopotentiel du niveau le plus proche de la pression obligatoire est indiqué.

5 Les stations disposant d'un diffuseur peuvent indiquer "trace". Cela signifie que des précipitations ont touchés le sol mais que la quantité est inférieure à 0.1 mm.

Récapitulatif de la journée
Température [°C] Vent [km/h] Ensoleillement4 [h] Precipitations totale5 [mm] Pression [Hpa]
Min1 Max.2 Moy.3 Max. Min Max.
12.0 28.4 0 25.9 13 h 12 min 0.3 1015.7 1020.4

1 Température minimale relevée entre 18:00 UTC la veille et 18:00 UTC le jour donné.

2 Température maximale relevée entre 06:00 UTC le jour donné et 06:00 UTC le lendemain.

3 Vent moyen de la journée basé sur les relevés horaires.

4 Ensoleillement en heures relevé entre 06:00 UTC la veille et 06:00 UTC le jour donné.

5 Précipitations totales tombées entre 06:00 UTC la jour donné et 06:00 UTC le lendemain.

Graphiques horaires